Time;durP1;ratioP1;P1;durP2;ratioP2;P2;SDS_P1;SDS_P2;PMS_P1;PMS_P2;Temp;Humidity;BMP_temperature;BMP_pressure;BME280_temperature;BME280_humidity;BME280_pressure;Samples;Min_cycle;Max_cycle;Signal;HPM_P1;HPM_P2
2024/02/26 00:00:09;;;;;;;1.95;0.90;;;;;;;;;;481362;28;1284;-73
2024/02/26 00:00:29;;;;;;;1.20;0.80;;;;;;;;;;480751;28;1076;-73
2024/02/26 00:00:46;;;;;;;1.55;0.95;;;;;;;;;;483913;28;929;-73
2024/02/26 00:01:06;;;;;;;1.90;1.02;;;;;;;;;;481776;28;1153;-73
2024/02/26 00:04:28;;;;;;;1.80;0.90;;;;;;;;;;518724;28;1488;-73
2024/02/26 00:04:44;;;;;;;2.03;1.00;;;;;;;;;;523964;23;2013;-72
2024/02/26 00:04:59;;;;;;;2.00;1.17;;;;;;;;;;513114;28;2024;-73
2024/02/26 00:05:14;;;;;;;1.95;1.10;;;;;;;;;;514326;28;1642;-72
2024/02/26 00:05:31;;;;;;;1.70;1.00;;;;;;;;;;513574;28;1358;-72
2024/02/26 00:05:46;;;;;;;2.00;1.05;;;;;;;;;;514514;28;934;-72
2024/02/26 00:06:02;;;;;;;1.93;1.00;;;;;;;;;;515622;28;883;-72
2024/02/26 00:06:18;;;;;;;1.85;1.00;;;;;;;;;;515080;28;2062;-72
2024/02/26 00:06:33;;;;;;;1.67;1.00;;;;;;;;;;515521;28;847;-72
2024/02/26 00:06:51;;;;;;;1.43;1.00;;;;;;;;;;515272;28;1049;-72
2024/02/26 00:07:06;;;;;;;1.40;1.00;;;;;;;;;;516040;28;1457;-72
2024/02/26 00:07:21;;;;;;;1.47;1.00;;;;;;;;;;518445;28;1001;-72
2024/02/26 00:07:37;;;;;;;1.50;1.00;;;;;;;;;;519820;28;1047;-72
2024/02/26 00:07:53;;;;;;;1.20;0.95;;;;;;;;;;520068;28;1920;-72
2024/02/26 00:08:08;;;;;;;1.60;1.05;;;;;;;;;;516297;28;1301;-72
2024/02/26 00:08:23;;;;;;;1.67;1.00;;;;;;;;;;515018;28;1036;-72
2024/02/26 00:08:38;;;;;;;1.60;0.90;;;;;;;;;;514615;28;967;-73
2024/02/26 00:08:54;;;;;;;1.57;0.97;;;;;;;;;;515329;28;815;-72
2024/02/26 00:09:09;;;;;;;1.35;0.93;;;;;;;;;;516950;28;1180;-72
2024/02/26 00:09:25;;;;;;;2.53;0.90;;;;;;;;;;517026;28;1077;-72
2024/02/26 00:09:40;;;;;;;2.63;0.82;;;;;;;;;;516656;28;1328;-72
2024/02/26 00:09:55;;;;;;;1.50;0.80;;;;;;;;;;517397;28;1021;-72
2024/02/26 00:10:11;;;;;;;1.30;0.83;;;;;;;;;;519197;28;799;-73
2024/02/26 00:10:26;;;;;;;1.95;0.90;;;;;;;;;;519090;28;1064;-72
2024/02/26 00:10:42;;;;;;;2.30;0.90;;;;;;;;;;518452;28;1021;-72
2024/02/26 00:10:57;;;;;;;1.60;1.02;;;;;;;;;;517177;28;878;-73
2024/02/26 00:11:13;;;;;;;1.58;1.02;;;;;;;;;;517158;28;816;-72
2024/02/26 00:11:28;;;;;;;1.30;0.90;;;;;;;;;;517305;28;1179;-73
2024/02/26 00:11:43;;;;;;;1.47;0.90;;;;;;;;;;520408;28;1179;-72
2024/02/26 00:11:59;;;;;;;1.70;1.10;;;;;;;;;;519112;28;891;-73
2024/02/26 00:12:14;;;;;;;1.60;1.10;;;;;;;;;;516793;28;1282;-73
2024/02/26 00:12:30;;;;;;;1.50;1.00;;;;;;;;;;517247;28;986;-72
2024/02/26 00:12:45;;;;;;;1.40;0.90;;;;;;;;;;514686;28;1332;-72
2024/02/26 00:13:00;;;;;;;1.37;1.00;;;;;;;;;;514874;28;867;-72
2024/02/26 00:13:15;;;;;;;1.83;0.97;;;;;;;;;;515046;28;1250;-72
2024/02/26 00:13:31;;;;;;;2.00;0.95;;;;;;;;;;515414;28;812;-72
2024/02/26 00:13:46;;;;;;;2.00;1.03;;;;;;;;;;517014;28;819;-72
2024/02/26 00:14:02;;;;;;;1.73;1.00;;;;;;;;;;517206;28;1151;-73
2024/02/26 00:14:17;;;;;;;1.27;0.90;;;;;;;;;;519057;28;1004;-72
2024/02/26 00:14:32;;;;;;;1.43;0.90;;;;;;;;;;518981;28;1065;-72
2024/02/26 00:14:49;;;;;;;1.37;0.90;;;;;;;;;;517726;28;1076;-72
2024/02/26 00:15:09;;;;;;;1.23;0.80;;;;;;;;;;518040;28;1089;-72
2024/02/26 00:15:25;;;;;;;1.10;0.80;;;;;;;;;;516736;28;1380;-72
2024/02/26 00:15:40;;;;;;;1.17;0.88;;;;;;;;;;516863;28;1124;-72
2024/02/26 00:15:56;;;;;;;1.30;0.90;;;;;;;;;;518139;28;832;-72
2024/02/26 00:16:11;;;;;;;1.23;0.80;;;;;;;;;;519231;28;898;-72
2024/02/26 00:16:26;;;;;;;1.40;0.90;;;;;;;;;;518941;28;997;-72
2024/02/26 00:16:42;;;;;;;2.00;0.90;;;;;;;;;;518802;28;1072;-72
2024/02/26 00:16:57;;;;;;;2.47;0.90;;;;;;;;;;519114;28;839;-72
2024/02/26 00:17:13;;;;;;;2.07;0.97;;;;;;;;;;518844;28;1155;-72
2024/02/26 00:17:28;;;;;;;1.77;1.10;;;;;;;;;;517125;28;831;-72
2024/02/26 00:17:44;;;;;;;1.83;1.00;;;;;;;;;;517168;28;1029;-72
2024/02/26 00:17:59;;;;;;;1.57;0.90;;;;;;;;;;518895;28;842;-72
2024/02/26 00:18:14;;;;;;;1.40;0.90;;;;;;;;;;518989;28;1490;-72
2024/02/26 00:18:29;;;;;;;1.20;0.80;;;;;;;;;;519147;28;811;-72
2024/02/26 00:18:45;;;;;;;1.30;0.88;;;;;;;;;;516743;28;887;-72
2024/02/26 00:19:00;;;;;;;2.00;0.90;;;;;;;;;;516664;28;1045;-72
2024/02/26 00:19:15;;;;;;;1.90;0.90;;;;;;;;;;514921;28;1048;-72
2024/02/26 00:19:31;;;;;;;1.17;0.80;;;;;;;;;;512969;28;1189;-72
2024/02/26 00:19:46;;;;;;;1.30;0.90;;;;;;;;;;514650;28;1022;-72
2024/02/26 00:20:04;;;;;;;1.80;0.90;;;;;;;;;;513155;28;1266;-72
2024/02/26 00:20:19;;;;;;;1.77;0.85;;;;;;;;;;513856;28;1372;-72
2024/02/26 00:20:35;;;;;;;1.42;0.85;;;;;;;;;;515407;28;973;-72
2024/02/26 00:20:50;;;;;;;1.63;0.90;;;;;;;;;;515279;28;1108;-72
2024/02/26 00:21:05;;;;;;;1.17;0.80;;;;;;;;;;514892;28;814;-72
2024/02/26 00:21:21;;;;;;;1.17;0.80;;;;;;;;;;515383;28;1041;-72
2024/02/26 00:21:41;;;;;;;1.20;0.80;;;;;;;;;;516750;28;917;-71
2024/02/26 00:21:56;;;;;;;0.88;0.77;;;;;;;;;;516370;28;1473;-72
2024/02/26 00:22:11;;;;;;;1.37;0.93;;;;;;;;;;515256;28;1361;-72
2024/02/26 00:22:26;;;;;;;1.70;0.97;;;;;;;;;;517212;28;965;-72
2024/02/26 00:22:42;;;;;;;1.40;0.88;;;;;;;;;;517107;28;1014;-72
2024/02/26 00:22:57;;;;;;;1.60;0.97;;;;;;;;;;516723;28;910;-72
2024/02/26 00:23:15;;;;;;;1.60;1.00;;;;;;;;;;516893;28;1096;-72
2024/02/26 00:23:30;;;;;;;1.38;0.90;;;;;;;;;;515175;28;1442;-72
2024/02/26 00:23:46;;;;;;;1.33;0.80;;;;;;;;;;515703;28;958;-72
2024/02/26 00:24:01;;;;;;;1.30;0.80;;;;;;;;;;515650;28;1152;-72
2024/02/26 00:24:16;;;;;;;1.70;0.87;;;;;;;;;;517649;28;1013;-72
2024/02/26 00:24:31;;;;;;;1.87;0.90;;;;;;;;;;517330;28;1173;-73
2024/02/26 00:24:47;;;;;;;1.20;0.80;;;;;;;;;;517299;28;930;-72
2024/02/26 00:25:02;;;;;;;0.93;0.73;;;;;;;;;;517365;28;799;-73
2024/02/26 00:25:18;;;;;;;1.48;0.80;;;;;;;;;;517354;28;1032;-72
2024/02/26 00:25:33;;;;;;;1.70;0.80;;;;;;;;;;519360;28;885;-72
2024/02/26 00:25:49;;;;;;;1.60;0.80;;;;;;;;;;516965;28;1551;-72
2024/02/26 00:26:04;;;;;;;1.20;0.80;;;;;;;;;;515199;28;1151;-72
2024/02/26 00:26:19;;;;;;;0.93;0.80;;;;;;;;;;516547;28;1073;-72
2024/02/26 00:26:35;;;;;;;1.15;0.77;;;;;;;;;;517359;28;1172;-72
2024/02/26 00:26:52;;;;;;;1.20;0.70;;;;;;;;;;515586;28;1144;-72
2024/02/26 00:27:08;;;;;;;1.85;0.80;;;;;;;;;;515145;28;1354;-72
2024/02/26 00:27:23;;;;;;;1.93;0.80;;;;;;;;;;516617;28;1141;-72
2024/02/26 00:27:40;;;;;;;1.33;0.80;;;;;;;;;;517237;28;1267;-72
2024/02/26 00:27:55;;;;;;;1.83;0.80;;;;;;;;;;516919;28;1973;-72
2024/02/26 00:28:11;;;;;;;1.65;0.82;;;;;;;;;;519183;28;1281;-72
2024/02/26 00:28:27;;;;;;;1.07;0.80;;;;;;;;;;518003;28;787;-72
2024/02/26 00:28:42;;;;;;;1.60;0.90;;;;;;;;;;517237;28;1339;-72
2024/02/26 00:28:58;;;;;;;1.60;0.80;;;;;;;;;;515315;28;1189;-72
2024/02/26 00:29:13;;;;;;;1.10;0.80;;;;;;;;;;515037;28;1223;-72
2024/02/26 00:29:29;;;;;;;1.27;0.82;;;;;;;;;;516259;28;1105;-72
2024/02/26 00:29:44;;;;;;;1.37;0.80;;;;;;;;;;515385;28;1286;-72
2024/02/26 00:29:59;;;;;;;1.23;0.80;;;;;;;;;;515362;28;1029;-73
2024/02/26 00:30:15;;;;;;;1.40;0.80;;;;;;;;;;515308;28;938;-72
2024/02/26 00:30:30;;;;;;;1.27;0.70;;;;;;;;;;515347;28;918;-73
2024/02/26 00:30:46;;;;;;;1.30;0.73;;;;;;;;;;517170;28;1160;-73
2024/02/26 00:31:02;;;;;;;1.48;0.90;;;;;;;;;;517506;28;815;-73
2024/02/26 00:31:17;;;;;;;1.90;1.10;;;;;;;;;;516528;28;1243;-72
2024/02/26 00:31:32;;;;;;;2.65;1.30;;;;;;;;;;515229;28;835;-73
2024/02/26 00:31:48;;;;;;;2.70;1.30;;;;;;;;;;514395;28;1174;-72
2024/02/26 00:32:04;;;;;;;2.07;1.10;;;;;;;;;;515170;28;984;-72
2024/02/26 00:32:19;;;;;;;2.22;1.13;;;;;;;;;;515084;28;1172;-72
2024/02/26 00:32:34;;;;;;;2.70;1.40;;;;;;;;;;515632;28;835;-72
2024/02/26 00:32:49;;;;;;;2.83;1.20;;;;;;;;;;515507;28;1480;-73
2024/02/26 00:33:05;;;;;;;2.67;1.10;;;;;;;;;;516914;28;1484;-72
2024/02/26 00:33:20;;;;;;;1.90;1.00;;;;;;;;;;515311;28;1612;-72
2024/02/26 00:33:35;;;;;;;1.60;1.00;;;;;;;;;;515418;28;1489;-72
2024/02/26 00:33:50;;;;;;;1.80;0.97;;;;;;;;;;517942;28;1221;-72
2024/02/26 00:34:06;;;;;;;1.47;0.90;;;;;;;;;;518525;28;1562;-73
2024/02/26 00:34:21;;;;;;;1.30;0.90;;;;;;;;;;516763;28;1425;-73
2024/02/26 00:34:36;;;;;;;1.77;1.00;;;;;;;;;;515586;28;1555;-72
2024/02/26 00:34:51;;;;;;;2.00;1.10;;;;;;;;;;516498;28;1320;-73
2024/02/26 00:35:09;;;;;;;1.63;0.90;;;;;;;;;;516229;28;1485;-72
2024/02/26 00:35:24;;;;;;;1.20;0.80;;;;;;;;;;518632;28;1206;-73
2024/02/26 00:35:39;;;;;;;1.10;0.90;;;;;;;;;;516935;28;1523;-73
2024/02/26 00:35:55;;;;;;;1.30;0.83;;;;;;;;;;518780;28;1499;-72
2024/02/26 00:36:10;;;;;;;1.17;0.80;;;;;;;;;;518701;28;1535;-72
2024/02/26 00:36:26;;;;;;;1.05;0.70;;;;;;;;;;520707;28;1288;-73
2024/02/26 00:36:41;;;;;;;1.37;0.80;;;;;;;;;;519878;28;1156;-73
2024/02/26 00:36:57;;;;;;;1.30;0.77;;;;;;;;;;518679;28;1534;-73
2024/02/26 00:37:12;;;;;;;1.30;0.73;;;;;;;;;;520894;28;1530;-72
2024/02/26 00:37:27;;;;;;;1.88;0.88;;;;;;;;;;520419;28;1467;-72
2024/02/26 00:37:44;;;;;;;2.13;0.83;;;;;;;;;;520449;28;1553;-72
2024/02/26 00:38:00;;;;;;;2.00;0.90;;;;;;;;;;520043;28;1415;-73
2024/02/26 00:38:16;;;;;;;1.88;1.00;;;;;;;;;;515439;28;1476;-73
2024/02/26 00:38:31;;;;;;;2.07;0.90;;;;;;;;;;516263;28;1406;-73
2024/02/26 00:38:50;;;;;;;1.60;0.90;;;;;;;;;;515758;28;1579;-73
2024/02/26 00:39:06;;;;;;;1.42;0.80;;;;;;;;;;516394;28;1477;-72
2024/02/26 00:39:21;;;;;;;1.58;0.80;;;;;;;;;;516804;28;1259;-73
2024/02/26 00:39:37;;;;;;;1.47;0.90;;;;;;;;;;514765;28;1469;-74
2024/02/26 00:39:53;;;;;;;1.23;0.90;;;;;;;;;;516700;28;1377;-73
2024/02/26 00:40:09;;;;;;;1.05;0.80;;;;;;;;;;515952;28;1488;-73
2024/02/26 00:40:24;;;;;;;1.10;0.80;;;;;;;;;;518570;28;1279;-73
2024/02/26 00:40:40;;;;;;;1.60;0.97;;;;;;;;;;515115;28;1500;-73
2024/02/26 00:40:55;;;;;;;1.85;1.00;;;;;;;;;;515119;28;1508;-73
2024/02/26 00:41:11;;;;;;;1.50;0.90;;;;;;;;;;516703;28;1370;-73
2024/02/26 00:41:26;;;;;;;2.13;0.85;;;;;;;;;;515862;28;1176;-73
2024/02/26 00:41:42;;;;;;;2.00;0.80;;;;;;;;;;515542;28;1429;-72
2024/02/26 00:41:57;;;;;;;1.02;0.80;;;;;;;;;;515860;28;1528;-73
2024/02/26 00:42:12;;;;;;;1.10;0.80;;;;;;;;;;516500;28;1485;-72
2024/02/26 00:42:28;;;;;;;1.37;0.90;;;;;;;;;;517419;28;1599;-73
2024/02/26 00:42:46;;;;;;;2.00;0.90;;;;;;;;;;518123;28;1503;-72
2024/02/26 00:43:01;;;;;;;1.52;0.80;;;;;;;;;;517721;28;1591;-74
2024/02/26 00:43:16;;;;;;;1.38;0.90;;;;;;;;;;517030;28;1259;-73
2024/02/26 00:43:31;;;;;;;1.60;0.97;;;;;;;;;;516476;28;1675;-73
2024/02/26 00:43:47;;;;;;;1.53;0.90;;;;;;;;;;515110;28;1514;-73
2024/02/26 00:44:02;;;;;;;1.65;0.93;;;;;;;;;;516550;28;1516;-73
2024/02/26 00:44:18;;;;;;;2.17;1.00;;;;;;;;;;515808;28;1484;-73
2024/02/26 00:44:33;;;;;;;1.90;0.90;;;;;;;;;;516559;28;1457;-73
2024/02/26 00:44:48;;;;;;;1.50;0.85;;;;;;;;;;515609;28;1578;-73
2024/02/26 00:45:04;;;;;;;1.30;0.73;;;;;;;;;;515549;28;1493;-73
2024/02/26 00:45:19;;;;;;;1.10;0.77;;;;;;;;;;515396;28;1559;-73
2024/02/26 00:45:34;;;;;;;1.25;0.80;;;;;;;;;;515538;28;1549;-73
2024/02/26 00:45:51;;;;;;;1.00;0.70;;;;;;;;;;513367;28;1454;-74
2024/02/26 00:46:07;;;;;;;0.88;0.75;;;;;;;;;;515412;28;1425;-74
2024/02/26 00:46:22;;;;;;;0.97;0.77;;;;;;;;;;515795;28;1216;-73
2024/02/26 00:46:37;;;;;;;1.53;0.93;;;;;;;;;;516650;28;1512;-74
2024/02/26 00:46:52;;;;;;;1.70;1.00;;;;;;;;;;517027;28;1254;-74
2024/02/26 00:47:08;;;;;;;1.30;0.90;;;;;;;;;;517892;28;1483;-74
2024/02/26 00:47:23;;;;;;;1.75;0.88;;;;;;;;;;518568;28;1210;-73
2024/02/26 00:47:40;;;;;;;1.90;0.80;;;;;;;;;;516710;28;1503;-74
2024/02/26 00:47:56;;;;;;;2.25;0.90;;;;;;;;;;517186;28;1957;-74
2024/02/26 00:48:13;;;;;;;2.40;1.00;;;;;;;;;;517364;28;1520;-74
2024/02/26 00:48:28;;;;;;;2.40;1.00;;;;;;;;;;517818;28;1425;-73
2024/02/26 00:48:44;;;;;;;2.57;0.97;;;;;;;;;;518402;28;1408;-73
2024/02/26 00:49:00;;;;;;;1.90;0.90;;;;;;;;;;517996;28;1563;-73
2024/02/26 00:49:15;;;;;;;1.55;0.80;;;;;;;;;;518217;28;1503;-73
2024/02/26 00:49:31;;;;;;;2.17;0.90;;;;;;;;;;517141;28;1682;-74
2024/02/26 00:49:46;;;;;;;1.90;0.90;;;;;;;;;;517680;28;1594;-74
2024/02/26 00:50:02;;;;;;;1.20;0.80;;;;;;;;;;517407;28;1393;-73
2024/02/26 00:50:17;;;;;;;1.25;0.70;;;;;;;;;;518127;28;1527;-73
2024/02/26 00:50:35;;;;;;;1.07;0.70;;;;;;;;;;518609;28;1570;-73
2024/02/26 00:50:51;;;;;;;1.10;0.70;;;;;;;;;;519294;28;1207;-73
2024/02/26 00:51:07;;;;;;;1.50;0.80;;;;;;;;;;519211;28;1423;-73
2024/02/26 00:51:23;;;;;;;1.75;0.90;;;;;;;;;;517872;28;1332;-73
2024/02/26 00:51:38;;;;;;;1.70;0.90;;;;;;;;;;517741;28;1496;-74
2024/02/26 00:51:53;;;;;;;1.67;0.80;;;;;;;;;;518761;28;1420;-74
2024/02/26 00:52:09;;;;;;;2.03;0.90;;;;;;;;;;518902;28;1578;-73
2024/02/26 00:52:24;;;;;;;1.75;0.90;;;;;;;;;;518400;28;1261;-74
2024/02/26 00:52:39;;;;;;;1.47;0.70;;;;;;;;;;517445;28;1563;-74
2024/02/26 00:52:54;;;;;;;1.40;0.77;;;;;;;;;;518452;28;1594;-72
2024/02/26 00:53:10;;;;;;;1.67;0.90;;;;;;;;;;517525;28;1598;-73
2024/02/26 00:53:25;;;;;;;1.75;1.00;;;;;;;;;;518177;28;1420;-73
2024/02/26 00:53:40;;;;;;;1.73;0.93;;;;;;;;;;517217;28;1389;-73
2024/02/26 00:53:56;;;;;;;2.10;0.90;;;;;;;;;;516143;28;1449;-73
2024/02/26 00:54:11;;;;;;;2.40;0.90;;;;;;;;;;515763;28;1515;-73
2024/02/26 00:54:26;;;;;;;2.37;0.80;;;;;;;;;;514017;28;1464;-74
2024/02/26 00:54:41;;;;;;;2.07;0.80;;;;;;;;;;515404;28;1520;-73
2024/02/26 00:54:57;;;;;;;1.73;0.90;;;;;;;;;;515547;28;1557;-74
2024/02/26 00:55:12;;;;;;;1.30;0.90;;;;;;;;;;514230;28;1261;-73
2024/02/26 00:55:27;;;;;;;1.10;0.80;;;;;;;;;;514354;28;1285;-73
2024/02/26 00:55:43;;;;;;;1.30;0.90;;;;;;;;;;514088;28;1182;-73
2024/02/26 00:56:01;;;;;;;1.50;0.90;;;;;;;;;;516013;28;1138;-74
2024/02/26 00:56:16;;;;;;;1.20;0.80;;;;;;;;;;515747;28;1137;-74
2024/02/26 00:56:31;;;;;;;1.27;0.70;;;;;;;;;;516565;28;1205;-73
2024/02/26 00:56:47;;;;;;;1.30;0.70;;;;;;;;;;515988;28;1072;-74
2024/02/26 00:57:02;;;;;;;1.30;0.80;;;;;;;;;;517173;28;1130;-73
2024/02/26 00:57:18;;;;;;;1.23;0.82;;;;;;;;;;514968;28;1039;-73
2024/02/26 00:57:33;;;;;;;1.30;0.90;;;;;;;;;;516536;28;1327;-73
2024/02/26 00:57:49;;;;;;;1.67;1.00;;;;;;;;;;512945;28;1245;-73
2024/02/26 00:58:04;;;;;;;1.63;0.95;;;;;;;;;;513824;28;1201;-73
2024/02/26 00:58:19;;;;;;;1.50;0.90;;;;;;;;;;513808;28;1281;-74
2024/02/26 00:58:35;;;;;;;1.42;0.80;;;;;;;;;;515904;28;1233;-74
2024/02/26 00:58:51;;;;;;;1.30;0.80;;;;;;;;;;515213;28;1339;-74
2024/02/26 00:59:06;;;;;;;1.30;0.80;;;;;;;;;;515930;28;1201;-74
2024/02/26 00:59:21;;;;;;;1.10;0.80;;;;;;;;;;518543;28;1063;-74
2024/02/26 00:59:36;;;;;;;1.10;0.70;;;;;;;;;;517698;28;1070;-73
2024/02/26 00:59:52;;;;;;;1.20;0.70;;;;;;;;;;516335;28;1251;-74
2024/02/26 01:00:10;;;;;;;1.20;0.80;;;;;;;;;;516024;28;1302;-74
2024/02/26 01:00:25;;;;;;;2.08;0.90;;;;;;;;;;515006;28;1172;-74
2024/02/26 01:00:41;;;;;;;2.05;0.85;;;;;;;;;;514368;28;1043;-74
2024/02/26 01:00:56;;;;;;;1.50;0.80;;;;;;;;;;516079;28;1216;-74
2024/02/26 01:01:11;;;;;;;1.10;0.80;;;;;;;;;;516672;28;1162;-74
2024/02/26 01:01:27;;;;;;;1.20;0.82;;;;;;;;;;514544;28;1074;-73
2024/02/26 01:01:42;;;;;;;1.13;0.80;;;;;;;;;;516454;28;1059;-73
2024/02/26 01:01:59;;;;;;;1.23;0.80;;;;;;;;;;516788;28;1329;-73
2024/02/26 01:02:15;;;;;;;1.80;0.80;;;;;;;;;;518478;28;1196;-74
2024/02/26 01:02:30;;;;;;;1.63;0.80;;;;;;;;;;517564;28;1157;-73
2024/02/26 01:02:49;;;;;;;1.30;0.80;;;;;;;;;;517360;28;1327;-73
2024/02/26 01:03:04;;;;;;;1.55;0.80;;;;;;;;;;518753;28;1042;-74
2024/02/26 01:03:20;;;;;;;1.52;0.80;;;;;;;;;;518083;28;1451;-73
2024/02/26 01:03:35;;;;;;;1.30;0.80;;;;;;;;;;518087;28;2034;-73
2024/02/26 01:03:50;;;;;;;2.13;1.07;;;;;;;;;;519236;28;1219;-73
2024/02/26 01:04:06;;;;;;;3.42;1.45;;;;;;;;;;518828;28;995;-73
2024/02/26 01:04:21;;;;;;;3.73;1.60;;;;;;;;;;517582;28;1148;-73
2024/02/26 01:04:36;;;;;;;3.17;1.60;;;;;;;;;;516484;28;1043;-73
2024/02/26 01:04:52;;;;;;;3.53;1.73;;;;;;;;;;517049;28;1143;-73
2024/02/26 01:05:11;;;;;;;3.87;1.87;;;;;;;;;;516807;28;916;-73
2024/02/26 01:05:26;;;;;;;3.72;1.55;;;;;;;;;;518621;28;1041;-74
2024/02/26 01:05:41;;;;;;;3.40;1.30;;;;;;;;;;518846;28;1156;-74
2024/02/26 01:05:57;;;;;;;2.63;1.20;;;;;;;;;;517442;28;1054;-74
2024/02/26 01:06:12;;;;;;;3.27;1.47;;;;;;;;;;518917;28;1137;-74
2024/02/26 01:06:27;;;;;;;3.60;1.92;;;;;;;;;;518419;28;1185;-73
2024/02/26 01:06:43;;;;;;;3.37;1.90;;;;;;;;;;518529;28;1287;-74
2024/02/26 01:06:58;;;;;;;3.27;1.60;;;;;;;;;;517635;28;1189;-74
2024/02/26 01:07:14;;;;;;;3.90;1.70;;;;;;;;;;516905;28;1165;-74
2024/02/26 01:07:33;;;;;;;3.67;1.67;;;;;;;;;;516808;28;1171;-74
2024/02/26 01:07:48;;;;;;;4.90;1.90;;;;;;;;;;516611;28;2459;-73
2024/02/26 01:08:04;;;;;;;4.93;1.93;;;;;;;;;;516893;28;1074;-73
2024/02/26 01:08:19;;;;;;;3.22;1.50;;;;;;;;;;516312;28;1181;-73
2024/02/26 01:08:35;;;;;;;2.45;1.20;;;;;;;;;;517672;28;1201;-73
2024/02/26 01:08:50;;;;;;;2.42;1.15;;;;;;;;;;519142;28;1062;-73
2024/02/26 01:09:06;;;;;;;2.60;1.20;;;;;;;;;;520416;28;1192;-73
2024/02/26 01:09:21;;;;;;;2.37;1.27;;;;;;;;;;520243;28;977;-74
2024/02/26 01:09:36;;;;;;;2.57;1.30;;;;;;;;;;518550;28;1285;-74
2024/02/26 01:09:52;;;;;;;2.43;1.17;;;;;;;;;;518764;28;1318;-74
2024/02/26 01:10:07;;;;;;;2.33;1.10;;;;;;;;;;515293;28;1197;-73
2024/02/26 01:10:22;;;;;;;2.72;1.20;;;;;;;;;;514715;28;1262;-73
2024/02/26 01:10:38;;;;;;;2.50;1.10;;;;;;;;;;514740;28;1138;-74
2024/02/26 01:10:53;;;;;;;2.10;1.10;;;;;;;;;;514847;28;867;-73
2024/02/26 01:11:08;;;;;;;3.13;1.20;;;;;;;;;;514705;28;1190;-73
2024/02/26 01:11:24;;;;;;;2.70;1.10;;;;;;;;;;514849;28;1017;-74
2024/02/26 01:11:39;;;;;;;1.93;1.10;;;;;;;;;;514766;28;1254;-74
2024/02/26 01:11:54;;;;;;;1.92;1.10;;;;;;;;;;515756;28;1168;-73
2024/02/26 01:12:10;;;;;;;1.87;1.00;;;;;;;;;;515368;28;1386;-74
2024/02/26 01:12:25;;;;;;;2.57;1.00;;;;;;;;;;515374;28;1111;-73
2024/02/26 01:12:40;;;;;;;2.15;0.90;;;;;;;;;;516279;28;1015;-73
2024/02/26 01:12:56;;;;;;;1.50;0.90;;;;;;;;;;516526;28;996;-74
2024/02/26 01:13:11;;;;;;;1.50;1.00;;;;;;;;;;515527;28;1181;-74
2024/02/26 01:13:26;;;;;;;2.05;1.20;;;;;;;;;;516580;28;1215;-74
2024/02/26 01:13:42;;;;;;;2.67;1.30;;;;;;;;;;516306;28;1173;-74
2024/02/26 01:13:57;;;;;;;2.53;1.20;;;;;;;;;;518233;28;1201;-74
2024/02/26 01:14:12;;;;;;;2.22;1.08;;;;;;;;;;516862;28;1007;-74
2024/02/26 01:14:28;;;;;;;1.70;0.90;;;;;;;;;;518979;28;1197;-74
2024/02/26 01:14:43;;;;;;;1.20;0.77;;;;;;;;;;516712;28;1211;-73
2024/02/26 01:14:58;;;;;;;1.30;0.70;;;;;;;;;;512757;28;1291;-74
2024/02/26 01:15:14;;;;;;;1.80;0.80;;;;;;;;;;514550;28;1071;-74
2024/02/26 01:15:29;;;;;;;1.57;0.90;;;;;;;;;;512636;28;1672;-74
2024/02/26 01:15:44;;;;;;;1.40;0.87;;;;;;;;;;512799;28;1182;-74
2024/02/26 01:16:00;;;;;;;2.00;0.90;;;;;;;;;;512354;28;1126;-74
2024/02/26 01:16:15;;;;;;;2.20;1.00;;;;;;;;;;511686;28;1186;-74
2024/02/26 01:16:31;;;;;;;2.00;1.00;;;;;;;;;;512333;28;1069;-74
2024/02/26 01:16:47;;;;;;;2.22;1.02;;;;;;;;;;513006;28;1226;-74
2024/02/26 01:17:02;;;;;;;2.20;1.00;;;;;;;;;;516854;28;1151;-75
2024/02/26 01:17:18;;;;;;;1.58;0.90;;;;;;;;;;516140;28;1217;-74
2024/02/26 01:17:33;;;;;;;1.67;0.98;;;;;;;;;;519364;28;1146;-74
2024/02/26 01:17:52;;;;;;;1.73;1.00;;;;;;;;;;521090;28;1029;-74
2024/02/26 01:18:07;;;;;;;1.65;1.00;;;;;;;;;;521453;28;870;-74
2024/02/26 01:18:23;;;;;;;1.52;0.98;;;;;;;;;;521533;28;1009;-74
2024/02/26 01:18:38;;;;;;;1.60;0.97;;;;;;;;;;521550;28;835;-74
2024/02/26 01:18:53;;;;;;;1.70;1.00;;;;;;;;;;519230;28;1210;-74
2024/02/26 01:19:09;;;;;;;2.00;0.90;;;;;;;;;;519157;28;1060;-75
2024/02/26 01:19:24;;;;;;;2.60;1.00;;;;;;;;;;518880;28;966;-75
2024/02/26 01:19:39;;;;;;;2.13;0.90;;;;;;;;;;517005;28;1041;-74
2024/02/26 01:19:54;;;;;;;1.50;0.80;;;;;;;;;;515302;28;1251;-74
2024/02/26 01:20:10;;;;;;;1.57;0.87;;;;;;;;;;516406;28;1373;-74
2024/02/26 01:20:25;;;;;;;1.60;0.90;;;;;;;;;;513634;28;1035;-74
2024/02/26 01:20:41;;;;;;;1.50;0.80;;;;;;;;;;514997;28;1423;-74
2024/02/26 01:20:56;;;;;;;1.33;0.80;;;;;;;;;;518992;28;1371;-74
2024/02/26 01:21:11;;;;;;;1.02;0.80;;;;;;;;;;517063;28;1375;-74
2024/02/26 01:21:29;;;;;;;1.07;0.70;;;;;;;;;;515355;28;1223;-74
2024/02/26 01:21:44;;;;;;;2.10;0.80;;;;;;;;;;517077;28;1083;-74
2024/02/26 01:21:59;;;;;;;1.95;0.70;;;;;;;;;;515172;28;1375;-74
2024/02/26 01:22:14;;;;;;;1.03;0.70;;;;;;;;;;514986;28;1205;-75
2024/02/26 01:22:30;;;;;;;1.07;0.80;;;;;;;;;;516736;28;1377;-74
2024/02/26 01:22:45;;;;;;;1.23;0.80;;;;;;;;;;515955;28;1170;-74
2024/02/26 01:23:00;;;;;;;1.30;0.80;;;;;;;;;;515055;28;816;-73
2024/02/26 01:23:16;;;;;;;1.03;0.80;;;;;;;;;;515497;28;1179;-73
2024/02/26 01:23:31;;;;;;;1.40;0.83;;;;;;;;;;517177;28;1042;-74
2024/02/26 01:23:46;;;;;;;1.45;0.85;;;;;;;;;;517057;28;1314;-74
2024/02/26 01:24:01;;;;;;;1.40;0.90;;;;;;;;;;517238;28;1439;-74
2024/02/26 01:24:17;;;;;;;1.33;0.90;;;;;;;;;;516402;28;866;-74
2024/02/26 01:24:32;;;;;;;0.97;0.73;;;;;;;;;;514892;28;1620;-74
2024/02/26 01:24:48;;;;;;;1.15;0.77;;;;;;;;;;517028;28;1604;-74
2024/02/26 01:25:03;;;;;;;1.30;0.80;;;;;;;;;;516800;28;1825;-74
2024/02/26 01:25:19;;;;;;;1.25;0.77;;;;;;;;;;517015;28;1142;-74
2024/02/26 01:25:34;;;;;;;1.37;0.70;;;;;;;;;;515379;28;1142;-74
2024/02/26 01:25:49;;;;;;;1.17;0.80;;;;;;;;;;517338;28;1078;-74
2024/02/26 01:26:04;;;;;;;1.10;0.87;;;;;;;;;;519282;28;842;-74
2024/02/26 01:26:21;;;;;;;1.17;0.80;;;;;;;;;;519187;28;1103;-74
2024/02/26 01:26:37;;;;;;;1.52;0.70;;;;;;;;;;519250;28;930;-74
2024/02/26 01:26:52;;;;;;;1.80;0.90;;;;;;;;;;519255;28;1040;-74
2024/02/26 01:27:08;;;;;;;1.52;0.90;;;;;;;;;;519222;28;1262;-74
2024/02/26 01:27:26;;;;;;;1.40;0.80;;;;;;;;;;520294;28;944;-74
2024/02/26 01:27:43;;;;;;;1.23;0.73;;;;;;;;;;518877;28;1032;-74
2024/02/26 01:27:58;;;;;;;1.42;0.73;;;;;;;;;;519003;28;1910;-74
2024/02/26 01:28:14;;;;;;;1.23;0.80;;;;;;;;;;517097;28;1152;-74
2024/02/26 01:28:29;;;;;;;0.95;0.68;;;;;;;;;;517338;28;1036;-73
2024/02/26 01:28:45;;;;;;;1.00;0.70;;;;;;;;;;516851;28;1077;-74
2024/02/26 01:29:00;;;;;;;1.75;0.88;;;;;;;;;;518219;28;858;-74
2024/02/26 01:29:15;;;;;;;1.80;0.90;;;;;;;;;;519102;28;1076;-73
2024/02/26 01:29:31;;;;;;;1.20;0.80;;;;;;;;;;517178;28;1257;-74
2024/02/26 01:29:46;;;;;;;1.20;0.80;;;;;;;;;;517061;28;1042;-74
2024/02/26 01:30:05;;;;;;;1.10;0.80;;;;;;;;;;517399;28;1077;-74
2024/02/26 01:30:20;;;;;;;1.67;0.80;;;;;;;;;;517995;28;1196;-74
2024/02/26 01:30:35;;;;;;;2.17;0.93;;;;;;;;;;517037;28;868;-74
2024/02/26 01:30:50;;;;;;;2.57;1.00;;;;;;;;;;518667;28;1326;-74
2024/02/26 01:31:08;;;;;;;2.30;0.90;;;;;;;;;;519283;28;834;-74
2024/02/26 01:31:23;;;;;;;1.30;0.80;;;;;;;;;;519219;28;997;-74
2024/02/26 01:31:38;;;;;;;1.27;0.80;;;;;;;;;;517074;28;1148;-74
2024/02/26 01:31:54;;;;;;;1.00;0.70;;;;;;;;;;515211;28;1322;-74
2024/02/26 01:32:10;;;;;;;1.40;0.68;;;;;;;;;;513369;28;2366;-75
2024/02/26 01:32:25;;;;;;;1.60;0.77;;;;;;;;;;515461;28;2374;-75
2024/02/26 01:32:40;;;;;;;1.07;0.80;;;;;;;;;;513697;28;2279;-74
2024/02/26 01:32:56;;;;;;;1.00;0.70;;;;;;;;;;514351;28;2555;-74
2024/02/26 01:33:11;;;;;;;0.90;0.60;;;;;;;;;;516311;28;1440;-74
2024/02/26 01:33:26;;;;;;;1.03;0.80;;;;;;;;;;515781;28;1274;-74
2024/02/26 01:33:42;;;;;;;1.70;0.77;;;;;;;;;;517692;28;1310;-74
2024/02/26 01:33:57;;;;;;;1.88;0.70;;;;;;;;;;518182;28;1575;-74
2024/02/26 01:34:12;;;;;;;1.60;0.80;;;;;;;;;;515752;28;1429;-74
2024/02/26 01:34:28;;;;;;;1.73;0.80;;;;;;;;;;517643;28;1362;-74
2024/02/26 01:34:43;;;;;;;1.42;0.82;;;;;;;;;;517803;28;1416;-74
2024/02/26 01:34:58;;;;;;;1.10;0.80;;;;;;;;;;515053;28;1134;-74
2024/02/26 01:35:14;;;;;;;0.90;0.70;;;;;;;;;;514790;28;1148;-74
2024/02/26 01:35:29;;;;;;;0.77;0.70;;;;;;;;;;515302;28;910;-74
2024/02/26 01:35:44;;;;;;;0.90;0.70;;;;;;;;;;513207;28;1220;-74
2024/02/26 01:36:00;;;;;;;1.33;0.80;;;;;;;;;;515147;28;1078;-74
2024/02/26 01:36:15;;;;;;;1.55;0.88;;;;;;;;;;515706;28;1073;-74
2024/02/26 01:36:31;;;;;;;1.40;0.80;;;;;;;;;;514895;28;1343;-74
2024/02/26 01:36:46;;;;;;;1.30;0.80;;;;;;;;;;515424;28;1038;-73
2024/02/26 01:37:01;;;;;;;1.30;0.80;;;;;;;;;;517227;28;902;-74
2024/02/26 01:37:17;;;;;;;1.50;0.80;;;;;;;;;;517123;28;1057;-74
2024/02/26 01:37:32;;;;;;;1.40;0.80;;;;;;;;;;517205;28;879;-74
2024/02/26 01:37:48;;;;;;;1.17;0.90;;;;;;;;;;513612;28;1165;-74
2024/02/26 01:38:03;;;;;;;1.25;0.80;;;;;;;;;;515004;28;1160;-74
2024/02/26 01:38:18;;;;;;;1.27;0.80;;;;;;;;;;516368;28;1169;-74
2024/02/26 01:38:34;;;;;;;1.42;0.80;;;;;;;;;;517220;28;1078;-74
2024/02/26 01:38:49;;;;;;;1.40;0.80;;;;;;;;;;515121;28;1213;-74
2024/02/26 01:39:04;;;;;;;1.53;0.90;;;;;;;;;;515271;28;875;-74
2024/02/26 01:39:20;;;;;;;1.23;0.90;;;;;;;;;;514965;28;1296;-74
2024/02/26 01:39:35;;;;;;;1.13;0.80;;;;;;;;;;514900;28;808;-74
2024/02/26 01:39:51;;;;;;;1.70;0.80;;;;;;;;;;516502;28;1100;-74